Time;durP1;ratioP1;P1;durP2;ratioP2;P2;SDS_P1;SDS_P2;PMS_P1;PMS_P2;Temp;Humidity;BMP_temperature;BMP_pressure;BME280_temperature;BME280_humidity;BME280_pressure;Samples;Min_cycle;Max_cycle;Signal;HPM_P1;HPM_P2
2024/03/10 00:01:47;;;;;;;;;;;;;;;7.85;100.00;99148.34;5032079;28;19917;-79
2024/03/10 00:04:13;;;;;;;;;;;;;;;7.88;100.00;99142.03;5030443;28;19921;-80
2024/03/10 00:06:38;;;;;;;;;;;;;;;7.90;100.00;99138.84;5030772;28;19917;-78
2024/03/10 00:09:03;;;;;;;;;;;;;;;7.93;100.00;99133.34;5009645;28;19926;-78
2024/03/10 00:11:29;;;;;;;;;;;;;;;7.98;100.00;99151.38;5007479;28;19918;-79
2024/03/10 00:13:55;;;;;;;;;;;;;;;7.97;100.00;99150.59;5007419;28;20034;-80
2024/03/10 00:16:20;;;;;;;;;;;;;;;7.89;100.00;99143.59;5007151;28;19917;-80
2024/03/10 00:18:45;;;;;;;;;;;;;;;7.87;100.00;99142.44;5007431;28;19921;-79
2024/03/10 00:21:11;;;;;;;;;;;;;;;7.78;100.00;99131.88;5020656;28;19977;-79
2024/03/10 00:23:36;;;;;;;;;;;;;;;7.80;100.00;99126.78;5002536;28;19968;-80
2024/03/10 00:26:05;;;;;;;;;;;;;;;7.76;100.00;99129.56;4997503;28;19941;-79
2024/03/10 00:28:31;;;;;;;;;;;;;;;7.74;100.00;99131.94;4995981;28;19973;-79
2024/03/10 00:30:57;;;;;;;;;;;;;;;7.75;100.00;99121.72;4990733;28;19922;-79
2024/03/10 00:33:22;;;;;;;;;;;;;;;7.81;100.00;99114.59;5007266;28;20380;-79
2024/03/10 00:35:48;;;;;;;;;;;;;;;7.84;100.00;99110.22;5020513;28;19918;-78
2024/03/10 00:38:13;;;;;;;;;;;;;;;7.78;100.00;99120.88;4992305;28;19922;-79
2024/03/10 00:40:38;;;;;;;;;;;;;;;7.86;100.00;99116.91;5005302;28;20001;-79
2024/03/10 00:43:04;;;;;;;;;;;;;;;7.90;100.00;99120.38;5002870;28;20004;-79
2024/03/10 00:45:29;;;;;;;;;;;;;;;7.91;100.00;99119.19;4992326;28;19918;-80
2024/03/10 00:47:55;;;;;;;;;;;;;;;7.93;100.00;99114.06;5007759;28;19917;-79
2024/03/10 00:50:21;;;;;;;;;;;;;;;7.94;100.00;99107.38;5007415;28;19922;-79
2024/03/10 00:52:46;;;;;;;;;;;;;;;7.96;100.00;99104.22;5007574;28;19969;-80
2024/03/10 00:55:11;;;;;;;;;;;;;;;7.96;100.00;99106.97;5006769;28;19964;-80
2024/03/10 00:57:38;;;;;;;;;;;;;;;7.97;100.00;99106.56;4992032;28;20443;-80
2024/03/10 01:00:04;;;;;;;;;;;;;;;7.97;100.00;99112.06;4990080;28;19922;-79
2024/03/10 01:02:30;;;;;;;;;;;;;;;7.99;100.00;99109.69;5007307;28;19918;-80
2024/03/10 01:04:55;;;;;;;;;;;;;;;7.96;100.00;99109.72;4992119;28;19918;-79
2024/03/10 01:07:20;;;;;;;;;;;;;;;7.97;100.00;99095.56;5006639;28;19925;-80
2024/03/10 01:09:45;;;;;;;;;;;;;;;8.01;100.00;99101.03;4990806;28;19929;-80
2024/03/10 01:12:12;;;;;;;;;;;;;;;7.98;100.00;99101.84;5003689;28;19941;-80
2024/03/10 01:14:38;;;;;;;;;;;;;;;7.95;100.00;99108.97;4990865;28;19918;-79
2024/03/10 01:17:04;;;;;;;;;;;;;;;7.97;100.00;99123.06;5002936;28;20672;-79
2024/03/10 01:19:33;;;;;;;;;;;;;;;7.94;100.00;99123.91;5010747;28;19968;-80
2024/03/10 01:21:59;;;;;;;;;;;;;;;7.94;100.00;99118.41;4994725;28;19918;-81
2024/03/10 01:24:24;;;;;;;;;;;;;;;7.96;100.00;99110.50;5010925;28;19922;-79
2024/03/10 01:26:49;;;;;;;;;;;;;;;7.96;100.00;99098.72;5010608;28;20000;-79
2024/03/10 01:29:18;;;;;;;;;;;;;;;7.96;100.00;99096.72;5010555;28;20422;-80
2024/03/10 01:31:44;;;;;;;;;;;;;;;7.81;100.00;99092.59;5010729;28;19925;-78
2024/03/10 01:34:10;;;;;;;;;;;;;;;7.88;100.00;99091.72;5010702;28;19917;-79
2024/03/10 01:36:35;;;;;;;;;;;;;;;7.92;100.00;99104.25;5010830;28;20331;-81
2024/03/10 01:39:01;;;;;;;;;;;;;;;7.90;100.00;99109.38;4995260;28;20296;-79
2024/03/10 01:41:26;;;;;;;;;;;;;;;7.91;100.00;99102.69;5010663;28;19953;-79
2024/03/10 01:43:52;;;;;;;;;;;;;;;7.90;100.00;99103.09;5010489;28;19925;-80
2024/03/10 01:46:18;;;;;;;;;;;;;;;7.81;100.00;99103.59;5010541;28;19976;-79
2024/03/10 01:48:46;;;;;;;;;;;;;;;7.82;100.00;99105.16;5010269;28;19940;-80
2024/03/10 01:51:14;;;;;;;;;;;;;;;7.85;100.00;99104.31;5010413;28;19918;-79
2024/03/10 01:53:40;;;;;;;;;;;;;;;7.85;100.00;99092.53;5010545;28;19918;-79
2024/03/10 01:56:06;;;;;;;;;;;;;;;7.85;100.00;99096.06;5010868;28;19941;-78
2024/03/10 01:58:34;;;;;;;;;;;;;;;7.84;100.00;99094.50;4988102;28;19922;-79
2024/03/10 02:01:03;;;;;;;;;;;;;;;7.91;100.00;99091.69;4987829;28;19924;-79
2024/03/10 02:03:28;;;;;;;;;;;;;;;7.93;100.00;99088.53;5007058;28;20445;-79
2024/03/10 02:05:54;;;;;;;;;;;;;;;7.91;100.00;99094.44;5022895;28;19922;-80
2024/03/10 02:08:19;;;;;;;;;;;;;;;7.92;100.00;99092.47;4990674;28;19937;-79
2024/03/10 02:10:46;;;;;;;;;;;;;;;7.95;100.00;99086.94;4987737;28;20003;-78
2024/03/10 02:13:12;;;;;;;;;;;;;;;7.99;100.00;99084.94;5009873;28;19918;-80
2024/03/10 02:15:37;;;;;;;;;;;;;;;7.98;100.00;99083.38;5009841;28;19925;-79
2024/03/10 02:18:03;;;;;;;;;;;;;;;7.99;100.00;99092.41;5007672;28;19918;-80
2024/03/10 02:20:29;;;;;;;;;;;;;;;8.01;100.00;99085.31;4993243;28;19925;-78
2024/03/10 02:22:55;;;;;;;;;;;;;;;7.95;100.00;99088.91;4993153;28;20392;-80
2024/03/10 02:25:23;;;;;;;;;;;;;;;7.94;100.00;99088.13;4992653;28;19964;-79
2024/03/10 02:27:50;;;;;;;;;;;;;;;7.91;100.00;99080.69;4994241;28;20388;-80
2024/03/10 02:30:19;;;;;;;;;;;;;;;7.95;100.00;99078.69;5009915;28;19925;-78
2024/03/10 02:49:30;;;;;;;;;;;;;;;7.84;100.00;99069.75;4994566;28;19968;-78
2024/03/10 02:51:55;;;;;;;;;;;;;;;7.84;100.00;99069.75;5009334;28;19949;-79
2024/03/10 02:54:21;;;;;;;;;;;;;;;7.86;100.00;99072.09;5009046;28;20446;-78
2024/03/10 02:56:46;;;;;;;;;;;;;;;7.81;100.00;99070.56;4992328;28;19976;-79
2024/03/10 02:59:11;;;;;;;;;;;;;;;7.69;100.00;99057.34;5009142;28;19918;-79
2024/03/10 03:01:40;;;;;;;;;;;;;;;7.66;100.00;99058.16;5008691;28;19918;-78
2024/03/10 03:04:06;;;;;;;;;;;;;;;7.67;100.00;99063.25;4993827;28;19913;-79
2024/03/10 03:06:31;;;;;;;;;;;;;;;7.67;100.00;99063.25;5012855;28;19923;-78
2024/03/10 03:08:56;;;;;;;;;;;;;;;7.68;100.00;99062.06;5035077;28;19929;-80
2024/03/10 03:11:22;;;;;;;;;;;;;;;7.71;100.00;99068.72;5032453;28;19940;-78
2024/03/10 03:13:48;;;;;;;;;;;;;;;7.70;100.00;99061.66;5031756;28;20394;-78
2024/03/10 03:16:14;;;;;;;;;;;;;;;7.70;100.00;99072.66;5030966;28;20379;-79
2024/03/10 03:18:40;;;;;;;;;;;;;;;7.72;100.00;99062.78;5031637;28;19923;-80
2024/03/10 03:21:05;;;;;;;;;;;;;;;7.87;100.00;99070.91;5014612;28;19959;-79
2024/03/10 03:23:30;;;;;;;;;;;;;;;7.94;100.00;99073.59;5015130;28;19964;-79
2024/03/10 03:25:56;;;;;;;;;;;;;;;7.85;100.00;99071.31;5030962;28;20004;-78
2024/03/10 03:28:21;;;;;;;;;;;;;;;7.90;100.00;99061.81;5031508;28;20386;-78
2024/03/10 03:30:47;;;;;;;;;;;;;;;7.89;100.00;99063.81;5030979;28;19921;-78
2024/03/10 03:33:13;;;;;;;;;;;;;;;7.89;100.00;99061.06;5031245;28;20031;-78
2024/03/10 03:35:38;;;;;;;;;;;;;;;7.84;100.00;99057.97;5031071;28;20442;-79
2024/03/10 03:38:04;;;;;;;;;;;;;;;7.80;100.00;99051.72;5014790;28;20315;-80
2024/03/10 03:40:30;;;;;;;;;;;;;;;7.68;100.00;99055.78;5031100;28;19917;-80
2024/03/10 03:42:55;;;;;;;;;;;;;;;7.66;100.00;99047.13;5015106;28;19952;-79
2024/03/10 03:45:22;;;;;;;;;;;;;;;7.69;100.00;99044.38;5031320;28;20357;-81
2024/03/10 03:47:47;;;;;;;;;;;;;;;7.67;100.00;99048.72;5024497;28;19924;-79
2024/03/10 03:50:12;;;;;;;;;;;;;;;7.63;100.00;99042.47;5017849;28;19917;-80
2024/03/10 03:52:38;;;;;;;;;;;;;;;7.55;100.00;99041.75;5014702;28;20007;-79
2024/03/10 03:55:03;;;;;;;;;;;;;;;7.46;100.00;99037.94;5032281;28;19947;-79
2024/03/10 03:57:28;;;;;;;;;;;;;;;7.38;100.00;99030.94;5032012;28;20063;-80
2024/03/10 03:59:54;;;;;;;;;;;;;;;7.31;100.00;99037.28;5033294;28;19918;-80
2024/03/10 04:02:25;;;;;;;;;;;;;;;7.29;100.00;99034.16;5022019;28;20311;-80
2024/03/10 04:04:50;;;;;;;;;;;;;;;7.34;100.00;99037.25;5040892;28;19999;-80
2024/03/10 04:07:16;;;;;;;;;;;;;;;7.38;100.00;99036.44;5030662;28;20354;-79
2024/03/10 04:09:41;;;;;;;;;;;;;;;7.30;100.00;99035.69;5030184;28;19925;-80
2024/03/10 04:12:07;;;;;;;;;;;;;;;7.24;100.00;99029.88;5031405;28;19924;-79
2024/03/10 04:14:32;;;;;;;;;;;;;;;7.31;100.00;99027.06;5030788;28;19921;-79
2024/03/10 04:16:57;;;;;;;;;;;;;;;7.31;100.00;99032.56;5030758;28;19917;-79
2024/03/10 04:19:23;;;;;;;;;;;;;;;7.38;100.00;99028.97;5030528;28;19917;-78
2024/03/10 04:21:48;;;;;;;;;;;;;;;7.41;100.00;99036.41;5030458;28;19936;-78
2024/03/10 04:24:14;;;;;;;;;;;;;;;7.50;100.00;99041.41;5030475;28;19917;-79
2024/03/10 04:26:42;;;;;;;;;;;;;;;7.52;100.00;99047.31;5032002;28;19917;-79
2024/03/10 04:29:13;;;;;;;;;;;;;;;7.53;100.00;99052.41;5014190;28;20036;-79
2024/03/10 04:31:39;;;;;;;;;;;;;;;7.52;100.00;99058.28;5014244;28;19917;-80
2024/03/10 04:34:04;;;;;;;;;;;;;;;7.56;100.00;99059.03;5013974;28;20371;-81
2024/03/10 04:36:30;;;;;;;;;;;;;;;7.55;100.00;99065.72;5030416;28;19921;-80
2024/03/10 04:38:59;;;;;;;;;;;;;;;7.55;100.00;99076.72;5026511;28;20003;-80
2024/03/10 04:41:25;;;;;;;;;;;;;;;7.55;100.00;99077.50;5030243;28;19925;-79
2024/03/10 04:43:51;;;;;;;;;;;;;;;7.58;100.00;99078.66;5030451;28;19913;-79
2024/03/10 04:46:18;;;;;;;;;;;;;;;7.57;100.00;99080.63;5031414;28;19921;-78
2024/03/10 04:48:43;;;;;;;;;;;;;;;7.49;100.00;99083.84;5031488;28;19913;-79
2024/03/10 04:51:09;;;;;;;;;;;;;;;7.39;100.00;99071.75;5017959;28;20413;-79
2024/03/10 04:53:35;;;;;;;;;;;;;;;7.41;100.00;99072.16;5017817;28;19913;-79
2024/03/10 04:56:00;;;;;;;;;;;;;;;7.44;100.00;99071.31;5034587;28;20010;-79
2024/03/10 04:58:26;;;;;;;;;;;;;;;7.43;100.00;99077.22;5034113;28;20390;-78
2024/03/10 05:00:52;;;;;;;;;;;;;;;7.48;100.00;99079.53;5034201;28;20012;-78
2024/03/10 05:03:17;;;;;;;;;;;;;;;7.48;100.00;99077.56;5033677;28;20008;-79
2024/03/10 05:05:42;;;;;;;;;;;;;;;7.52;100.00;99086.56;5033595;28;19921;-80
2024/03/10 05:08:10;;;;;;;;;;;;;;;7.61;100.00;99091.59;5020237;28;19980;-78
2024/03/10 05:10:36;;;;;;;;;;;;;;;7.66;100.00;99094.69;5010970;28;19918;-79
2024/03/10 05:13:01;;;;;;;;;;;;;;;7.64;100.00;99104.53;5010839;28;20024;-79
2024/03/10 05:15:26;;;;;;;;;;;;;;;7.71;100.00;99104.47;5006145;28;20012;-78
2024/03/10 05:17:52;;;;;;;;;;;;;;;7.71;100.00;99094.25;4996612;28;19918;-78
2024/03/10 05:20:18;;;;;;;;;;;;;;;7.80;100.00;99099.28;5010511;28;19995;-79
2024/03/10 05:22:46;;;;;;;;;;;;;;;7.89;100.00;99094.09;5009908;28;19958;-80
2024/03/10 05:25:11;;;;;;;;;;;;;;;8.00;100.00;99099.47;5010583;28;19929;-80
2024/03/10 05:27:41;;;;;;;;;;;;;;;8.08;100.00;99106.44;5014333;28;20318;-78
2024/03/10 05:30:06;;;;;;;;;;;;;;;8.13;100.00;99109.56;5014126;28;19917;-78
2024/03/10 05:32:32;;;;;;;;;;;;;;;8.14;100.00;99110.31;4997473;28;20411;-79
2024/03/10 05:34:57;;;;;;;;;;;;;;;8.22;100.00;99114.56;5010429;28;19922;-78
2024/03/10 05:37:22;;;;;;;;;;;;;;;8.29;100.00;99111.72;4989291;28;20419;-79
2024/03/10 05:39:48;;;;;;;;;;;;;;;8.43;100.00;99122.59;4996914;28;20322;-79
2024/03/10 05:42:13;;;;;;;;;;;;;;;8.50;100.00;99119.75;5009086;28;20073;-80
2024/03/10 05:44:40;;;;;;;;;;;;;;;8.48;100.00;99124.13;4995268;28;19918;-80
2024/03/10 05:47:05;;;;;;;;;;;;;;;8.34;100.00;99135.28;5009962;28;19918;-80
2024/03/10 05:49:31;;;;;;;;;;;;;;;8.27;100.00;99141.63;4995268;28;20016;-78
2024/03/10 05:51:56;;;;;;;;;;;;;;;8.17;100.00;99143.31;5010126;28;20406;-78
2024/03/10 05:54:21;;;;;;;;;;;;;;;8.16;100.00;99139.00;5010683;28;19961;-78
2024/03/10 05:56:47;;;;;;;;;;;;;;;8.23;100.00;99140.88;5010182;28;20422;-79
2024/03/10 05:59:13;;;;;;;;;;;;;;;8.29;100.00;99136.50;4994982;28;19918;-78
2024/03/10 06:01:39;;;;;;;;;;;;;;;8.50;100.00;99139.03;4990249;28;19918;-79
2024/03/10 06:04:05;;;;;;;;;;;;;;;8.68;100.00;99138.78;4985020;28;19914;-80
2024/03/10 06:06:30;;;;;;;;;;;;;;;8.87;100.00;99131.88;5010206;28;20008;-79
2024/03/10 06:08:56;;;;;;;;;;;;;;;9.06;100.00;99135.94;5010018;28;19930;-80
2024/03/10 06:11:21;;;;;;;;;;;;;;;9.22;100.00;99131.34;4994833;28;19931;-79
2024/03/10 06:13:47;;;;;;;;;;;;;;;9.28;100.00;99137.22;5009957;28;19925;-78
2024/03/10 06:16:12;;;;;;;;;;;;;;;9.46;99.52;99134.19;5014079;28;20410;-78
2024/03/10 06:26:54;;;;;;;;;;;;;;;9.94;94.72;99140.06;5003343;28;19929;-79
2024/03/10 06:29:20;;;;;;;;;;;;;;;10.28;94.28;99144.59;5009706;28;20430;-79
2024/03/10 06:31:46;;;;;;;;;;;;;;;10.59;92.94;99140.44;5010299;28;19976;-82
2024/03/10 06:34:11;;;;;;;;;;;;;;;10.55;92.70;99140.47;4993531;28;19953;-79
2024/03/10 06:36:37;;;;;;;;;;;;;;;10.94;92.76;99145.22;4988723;28;20445;-80
2024/03/10 06:39:03;;;;;;;;;;;;;;;11.35;89.11;99144.69;4999502;28;20347;-79
2024/03/10 06:41:29;;;;;;;;;;;;;;;11.49;86.29;99138.03;4990548;28;19922;-80
2024/03/10 06:43:55;;;;;;;;;;;;;;;11.69;81.92;99147.00;4999422;28;20036;-80
2024/03/10 06:46:21;;;;;;;;;;;;;;;11.97;80.07;99144.78;5006273;28;19914;-79
2024/03/10 06:48:46;;;;;;;;;;;;;;;12.37;75.90;99153.59;5009699;28;19914;-79
2024/03/10 06:51:11;;;;;;;;;;;;;;;12.86;71.29;99148.66;5022495;28;20423;-78
2024/03/10 06:53:37;;;;;;;;;;;;;;;12.88;68.77;99160.88;5009535;28;19925;-79
2024/03/10 06:56:03;;;;;;;;;;;;;;;13.12;67.30;99163.34;5022198;28;19918;-80
2024/03/10 06:58:29;;;;;;;;;;;;;;;13.23;67.07;99163.81;5019230;28;20441;-80
2024/03/10 07:00:55;;;;;;;;;;;;;;;12.94;69.23;99161.88;4999145;28;19917;-80
2024/03/10 07:03:21;;;;;;;;;;;;;;;13.01;68.23;99158.91;5002190;28;19918;-80
2024/03/10 07:05:46;;;;;;;;;;;;;;;13.58;64.90;99162.72;4993813;28;19922;-79
2024/03/10 07:08:13;;;;;;;;;;;;;;;13.62;64.66;99157.06;4992414;28;20378;-80
2024/03/10 07:10:38;;;;;;;;;;;;;;;14.11;64.11;99169.28;4993583;28;19918;-82
2024/03/10 07:13:04;;;;;;;;;;;;;;;14.34;60.66;99162.56;5008033;28;20021;-82
2024/03/10 07:15:30;;;;;;;;;;;;;;;14.58;59.02;99160.94;4983618;28;19918;-82
2024/03/10 07:17:55;;;;;;;;;;;;;;;14.61;57.43;99162.78;4986877;28;19926;-80
2024/03/10 07:20:21;;;;;;;;;;;;;;;13.51;61.05;99162.94;5006309;28;19969;-81
2024/03/10 07:22:46;;;;;;;;;;;;;;;13.59;61.45;99169.03;4986351;28;20297;-78
2024/03/10 07:25:14;;;;;;;;;;;;;;;14.14;60.71;99168.41;4991252;28;19913;-81
2024/03/10 07:27:40;;;;;;;;;;;;;;;14.49;58.26;99166.41;5020766;28;19978;-82
2024/03/10 07:30:05;;;;;;;;;;;;;;;14.23;58.16;99168.47;4993071;28;20004;-80
2024/03/10 07:32:31;;;;;;;;;;;;;;;13.79;59.35;99164.03;5021502;28;20376;-81
2024/03/10 07:34:57;;;;;;;;;;;;;;;13.79;60.38;99162.03;4992613;28;19918;-78
2024/03/10 07:37:23;;;;;;;;;;;;;;;14.07;58.73;99167.84;4993333;28;19918;-79
2024/03/10 07:39:48;;;;;;;;;;;;;;;14.24;57.85;99169.25;5005771;28;20419;-77
2024/03/10 07:42:15;;;;;;;;;;;;;;;14.08;59.69;99169.41;5000558;28;19941;-79
2024/03/10 07:44:41;;;;;;;;;;;;;;;14.15;58.80;99177.50;4984886;28;19922;-77
2024/03/10 07:47:06;;;;;;;;;;;;;;;13.85;59.91;99165.03;4993170;28;19996;-79
2024/03/10 07:49:31;;;;;;;;;;;;;;;13.44;62.95;99169.47;5006988;28;19922;-82
2024/03/10 07:51:56;;;;;;;;;;;;;;;13.45;64.78;99173.81;5006096;28;19922;-81
2024/03/10 07:54:22;;;;;;;;;;;;;;;13.71;65.43;99171.81;5007072;28;19928;-78
2024/03/10 07:56:47;;;;;;;;;;;;;;;13.76;64.56;99170.47;4997054;28;19917;-79
2024/03/10 07:59:13;;;;;;;;;;;;;;;13.92;63.85;99175.13;4996572;28;19997;-79
2024/03/10 08:01:39;;;;;;;;;;;;;;;13.62;61.60;99180.03;5005574;28;20004;-79
2024/03/10 08:04:04;;;;;;;;;;;;;;;13.66;61.83;99179.94;5005689;28;19914;-79
2024/03/10 08:06:30;;;;;;;;;;;;;;;13.42;64.63;99177.50;4991002;28;19968;-78
2024/03/10 08:08:55;;;;;;;;;;;;;;;13.15;67.28;99173.56;5023077;28;19964;-82
2024/03/10 08:11:22;;;;;;;;;;;;;;;13.31;65.07;99179.81;5029841;28;19917;-79
2024/03/10 08:13:47;;;;;;;;;;;;;;;13.27;64.83;99181.13;5030233;28;19999;-82
2024/03/10 08:16:13;;;;;;;;;;;;;;;13.09;65.28;99181.66;5031185;28;20013;-78
2024/03/10 08:18:39;;;;;;;;;;;;;;;12.68;66.78;99174.13;5031585;28;19923;-80
2024/03/10 08:21:04;;;;;;;;;;;;;;;12.66;68.66;99176.53;5044576;28;20495;-78
2024/03/10 08:23:29;;;;;;;;;;;;;;;12.74;67.63;99172.38;5040776;28;19917;-78
2024/03/10 08:25:55;;;;;;;;;;;;;;;12.33;67.01;99166.78;5016471;28;19917;-80
2024/03/10 08:28:20;;;;;;;;;;;;;;;12.88;64.52;99171.97;5031368;28;20015;-79
2024/03/10 08:30:46;;;;;;;;;;;;;;;13.34;62.76;99167.81;5029962;28;20318;-80
2024/03/10 08:33:12;;;;;;;;;;;;;;;13.23;59.77;99170.16;5031543;28;19917;-81
2024/03/10 08:35:40;;;;;;;;;;;;;;;13.45;60.96;99170.25;5031109;28;19913;-79
2024/03/10 08:38:05;;;;;;;;;;;;;;;13.56;61.40;99162.41;5030034;28;19913;-81
2024/03/10 08:40:34;;;;;;;;;;;;;;;13.76;59.15;99162.91;5030667;28;20291;-79
2024/03/10 08:42:59;;;;;;;;;;;;;;;13.76;57.10;99151.81;5029931;28;20377;-79
2024/03/10 08:45:25;;;;;;;;;;;;;;;14.02;55.36;99157.31;5029873;28;19917;-80
2024/03/10 08:47:50;;;;;;;;;;;;;;;14.33;54.40;99149.09;5030130;28;19921;-80
2024/03/10 08:50:16;;;;;;;;;;;;;;;14.17;58.37;99153.59;5030510;28;19917;-79
2024/03/10 08:52:44;;;;;;;;;;;;;;;14.64;57.86;99161.91;5031317;28;19971;-79
2024/03/10 08:55:13;;;;;;;;;;;;;;;14.85;54.53;99154.75;5034566;28;19956;-80
2024/03/10 08:57:39;;;;;;;;;;;;;;;15.12;56.40;99147.81;5030092;28;19963;-79
2024/03/10 09:00:05;;;;;;;;;;;;;;;14.99;52.89;99148.66;5013364;28;19957;-79
2024/03/10 09:02:30;;;;;;;;;;;;;;;15.20;53.52;99147.06;5025513;28;19947;-79
2024/03/10 09:04:55;;;;;;;;;;;;;;;15.41;53.13;99143.47;5011363;28;19979;-79
2024/03/10 09:07:21;;;;;;;;;;;;;;;15.14;52.63;99148.88;5021832;28;19943;-79
2024/03/10 09:09:46;;;;;;;;;;;;;;;15.10;54.52;99145.47;5029627;28;19949;-81
2024/03/10 09:12:12;;;;;;;;;;;;;;;15.31;53.19;99152.97;5031282;28;19961;-79
2024/03/10 09:14:37;;;;;;;;;;;;;;;15.49;49.85;99155.09;5030574;28;19917;-81
2024/03/10 09:17:03;;;;;;;;;;;;;;;15.36;50.21;99140.50;5013468;28;19979;-79
2024/03/10 09:19:29;;;;;;;;;;;;;;;15.15;52.45;99138.53;5029516;28;20012;-79
2024/03/10 09:21:54;;;;;;;;;;;;;;;14.60;56.65;99130.66;5013185;28;19956;-80
2024/03/10 09:24:20;;;;;;;;;;;;;;;14.70;57.92;99127.94;5029214;28;20454;-79
2024/03/10 09:26:45;;;;;;;;;;;;;;;14.92;56.50;99117.56;5031033;28;19967;-81
2024/03/10 09:29:14;;;;;;;;;;;;;;;13.94;55.38;99108.75;5030384;28;20390;-81
2024/03/10 09:31:40;;;;;;;;;;;;;;;13.65;58.76;99109.72;5030043;28;19971;-81
2024/03/10 09:34:06;;;;;;;;;;;;;;;13.64;60.08;99105.41;5012706;28;19936;-79
2024/03/10 09:36:31;;;;;;;;;;;;;;;13.66;59.77;99104.97;5016640;28;20383;-81
2024/03/10 09:38:56;;;;;;;;;;;;;;;13.98;61.42;99098.31;5032849;28;20046;-79
2024/03/10 09:41:22;;;;;;;;;;;;;;;13.86;57.48;99092.34;5034626;28;19924;-80
2024/03/10 09:43:49;;;;;;;;;;;;;;;13.61;58.03;99095.19;5033305;28;19917;-83
2024/03/10 09:46:16;;;;;;;;;;;;;;;13.57;61.52;99097.31;5034673;28;19913;-79
2024/03/10 09:48:42;;;;;;;;;;;;;;;13.31;63.24;99095.78;5032842;28;19921;-81
2024/03/10 09:51:11;;;;;;;;;;;;;;;13.21;59.16;99092.13;5034279;28;19913;-80
2024/03/10 09:53:37;;;;;;;;;;;;;;;13.04;61.18;99090.66;5032980;28;19971;-79
2024/03/10 09:56:02;;;;;;;;;;;;;;;12.85;62.81;99095.19;5033061;28;20318;-79
2024/03/10 09:58:38;;;;;;;;;;;;;;;12.93;62.12;99093.75;5037091;28;19913;-82
2024/03/10 10:01:11;;;;;;;;;;;;;;;12.62;67.84;99087.16;5023697;28;19948;-79
2024/03/10 10:03:38;;;;;;;;;;;;;;;12.42;66.31;99089.31;5032907;28;19967;-79
2024/03/10 10:06:04;;;;;;;;;;;;;;;12.76;71.06;99089.53;5032405;28;19931;-80
2024/03/10 10:08:29;;;;;;;;;;;;;;;12.71;70.65;99086.53;5033961;28;19933;-79
2024/03/10 10:10:58;;;;;;;;;;;;;;;12.91;70.20;99085.09;5033753;28;20016;-79
2024/03/10 10:13:27;;;;;;;;;;;;;;;13.02;71.53;99079.22;5040567;28;19956;-81
2024/03/10 10:15:53;;;;;;;;;;;;;;;12.40;69.39;99087.03;5019126;28;20379;-79
2024/03/10 10:18:19;;;;;;;;;;;;;;;12.22;67.72;99070.91;5035020;28;19920;-81
2024/03/10 10:20:53;;;;;;;;;;;;;;;12.30;68.23;99071.44;5015663;28;19928;-82
2024/03/10 10:23:26;;;;;;;;;;;;;;;12.37;71.11;99070.47;5041849;28;20033;-81
2024/03/10 10:26:05;;;;;;;;;;;;;;;12.61;74.20;99063.44;5048720;28;20012;-80
2024/03/10 10:28:32;;;;;;;;;;;;;;;12.79;69.60;99058.13;5034043;28;19948;-78
2024/03/10 10:31:07;;;;;;;;;;;;;;;12.88;73.63;99046.38;5033480;28;19971;-78
2024/03/10 10:33:33;;;;;;;;;;;;;;;13.02;74.33;99049.47;5045128;28;19917;-80
2024/03/10 10:36:05;;;;;;;;;;;;;;;12.99;71.07;99041.28;5033525;28;19963;-80
2024/03/10 10:38:35;;;;;;;;;;;;;;;12.99;74.61;99028.19;5032348;28;19925;-80
2024/03/10 10:41:05;;;;;;;;;;;;;;;12.66;66.40;99026.09;5033063;28;19918;-77
2024/03/10 10:43:32;;;;;;;;;;;;;;;12.32;68.01;99021.94;5051622;28;19936;-79
2024/03/10 10:45:58;;;;;;;;;;;;;;;12.45;71.24;99010.88;5052579;28;19921;-80
2024/03/10 10:48:25;;;;;;;;;;;;;;;12.46;68.76;99012.44;5026346;28;19925;-79
2024/03/10 10:50:51;;;;;;;;;;;;;;;12.19;70.52;99015.56;5014921;28;20461;-79
2024/03/10 10:53:17;;;;;;;;;;;;;;;12.12;69.74;99013.78;5013185;28;20028;-79
2024/03/10 10:55:44;;;;;;;;;;;;;;;12.13;74.83;99007.03;5040719;28;19948;-81
2024/03/10 10:58:17;;;;;;;;;;;;;;;12.33;75.78;99006.09;5004148;28;19928;-82
2024/03/10 11:00:49;;;;;;;;;;;;;;;12.61;76.96;98994.13;5014035;28;19924;-80
2024/03/10 11:03:22;;;;;;;;;;;;;;;12.83;75.42;98994.25;5016928;28;19975;-79
2024/03/10 11:06:03;;;;;;;;;;;;;;;12.87;73.38;98987.38;5022331;28;19921;-81
2024/03/10 11:08:29;;;;;;;;;;;;;;;12.49;72.78;98984.59;5017896;28;19967;-77
2024/03/10 11:10:54;;;;;;;;;;;;;;;12.63;73.16;98984.16;5023502;28;19917;-79
2024/03/10 11:13:22;;;;;;;;;;;;;;;12.75;73.55;98982.63;5011065;28;20314;-78
2024/03/10 11:16:02;;;;;;;;;;;;;;;12.70;74.81;98974.09;5024526;28;19979;-81
2024/03/10 11:18:27;;;;;;;;;;;;;;;12.77;73.75;98982.97;5031155;28;19943;-81
2024/03/10 11:20:57;;;;;;;;;;;;;;;12.61;71.22;98969.19;5031471;28;20333;-81
2024/03/10 11:23:38;;;;;;;;;;;;;;;12.66;73.62;98965.84;5031171;28;19932;-78
2024/03/10 11:26:08;;;;;;;;;;;;;;;12.82;72.87;98968.53;5029122;28;20019;-80
2024/03/10 11:28:48;;;;;;;;;;;;;;;12.74;72.13;98972.75;5029608;28;19925;-79
2024/03/10 11:31:36;;;;;;;;;;;;;;;12.63;70.41;98967.53;5012828;28;19924;-78
2024/03/10 11:34:04;;;;;;;;;;;;;;;12.49;71.40;98961.66;5014537;28;19927;-78
2024/03/10 11:36:47;;;;;;;;;;;;;;;12.61;71.90;98958.88;5031485;28;19921;-81
2024/03/10 11:39:19;;;;;;;;;;;;;;;12.63;69.80;98952.91;5009944;28;20413;-80
2024/03/10 11:41:48;;;;;;;;;;;;;;;12.78;69.33;98958.78;5028853;28;19983;-79
2024/03/10 11:44:14;;;;;;;;;;;;;;;12.68;73.61;98952.34;5030682;28;19979;-82
2024/03/10 11:46:40;;;;;;;;;;;;;;;12.69;71.35;98964.97;5014041;28;19921;-79
2024/03/10 11:49:06;;;;;;;;;;;;;;;12.54;71.38;98955.53;5030314;28;19921;-80
2024/03/10 11:51:38;;;;;;;;;;;;;;;12.53;72.25;98957.56;5028553;28;19925;-81
2024/03/10 11:54:03;;;;;;;;;;;;;;;12.71;74.12;98953.47;5010765;28;19931;-78
2024/03/10 11:56:32;;;;;;;;;;;;;;;12.80;74.90;98959.09;5011216;28;20330;-82
2024/03/10 11:58:57;;;;;;;;;;;;;;;12.85;70.68;98950.22;5005331;28;20413;-78
2024/03/10 12:01:23;;;;;;;;;;;;;;;12.75;71.98;98952.13;5031496;28;19968;-80
2024/03/10 12:03:49;;;;;;;;;;;;;;;12.92;71.28;98944.44;5013113;28;20398;-79
2024/03/10 12:06:15;;;;;;;;;;;;;;;12.97;72.31;98943.88;5007178;28;19925;-83
2024/03/10 12:08:44;;;;;;;;;;;;;;;13.11;73.00;98943.41;4995497;28;19932;-80
2024/03/10 12:11:14;;;;;;;;;;;;;;;13.10;71.36;98944.63;4991050;28;19926;-79
2024/03/10 12:13:41;;;;;;;;;;;;;;;13.08;69.65;98946.31;5004635;28;19921;-78
2024/03/10 12:16:06;;;;;;;;;;;;;;;13.03;70.20;98944.84;5000557;28;19922;-79
2024/03/10 12:18:33;;;;;;;;;;;;;;;13.00;71.01;98937.44;4990209;28;19928;-79
2024/03/10 12:21:00;;;;;;;;;;;;;;;13.07;68.88;98939.22;4990683;28;19930;-80
2024/03/10 12:23:26;;;;;;;;;;;;;;;12.93;68.63;98941.22;4989628;28;19922;-81
2024/03/10 12:25:51;;;;;;;;;;;;;;;12.88;72.02;98947.34;5003794;28;20033;-80
2024/03/10 12:28:20;;;;;;;;;;;;;;;12.95;72.62;98943.56;4989741;28;20486;-80
2024/03/10 12:30:45;;;;;;;;;;;;;;;13.20;73.41;98948.31;4986840;28;20383;-81
2024/03/10 12:33:11;;;;;;;;;;;;;;;13.62;71.31;98932.16;4990021;28;19922;-79
2024/03/10 12:35:37;;;;;;;;;;;;;;;13.95;69.64;98943.66;4997119;28;19929;-80
2024/03/10 12:38:02;;;;;;;;;;;;;;;14.09;70.73;98949.47;4989273;28;20012;-81
2024/03/10 12:40:31;;;;;;;;;;;;;;;14.38;69.68;98951.19;5005999;28;20028;-83
2024/03/10 12:42:57;;;;;;;;;;;;;;;14.50;68.30;98945.53;5006028;28;20289;-82
2024/03/10 12:45:22;;;;;;;;;;;;;;;14.85;69.29;98946.13;4989752;28;19925;-79
2024/03/10 12:47:52;;;;;;;;;;;;;;;14.97;64.86;98944.44;4989880;28;20436;-79
2024/03/10 12:50:17;;;;;;;;;;;;;;;14.73;66.99;98941.44;5006814;28;19918;-79
2024/03/10 12:52:43;;;;;;;;;;;;;;;14.62;65.44;98930.75;5002983;28;19944;-82
2024/03/10 12:55:09;;;;;;;;;;;;;;;14.08;67.00;98922.91;5006207;28;19988;-79
2024/03/10 12:57:39;;;;;;;;;;;;;;;13.67;68.42;98910.16;5005466;28;19913;-81
2024/03/10 13:00:27;;;;;;;;;;;;;;;14.13;69.38;98902.09;5000593;28;19922;-79
2024/03/10 13:02:55;;;;;;;;;;;;;;;13.90;67.50;98908.91;4989487;28;19925;-78
2024/03/10 13:05:21;;;;;;;;;;;;;;;13.96;69.00;98901.53;4988295;28;20300;-79
2024/03/10 13:07:46;;;;;;;;;;;;;;;13.96;67.88;98909.09;5004487;28;20408;-79
2024/03/10 13:10:11;;;;;;;;;;;;;;;14.35;67.26;98908.34;5006402;28;19926;-79